createdAt,value
2018-10-05T00:01:55.801Z,99.90
2018-10-05T00:04:25.744Z,99.90
2018-10-05T00:06:55.759Z,99.90
2018-10-05T00:11:55.211Z,99.90
2018-10-05T00:16:54.583Z,99.90
2018-10-05T00:29:22.415Z,99.90
2018-10-05T00:31:52.401Z,99.90
2018-10-05T00:34:22.547Z,99.90
2018-10-05T00:39:21.993Z,99.90
2018-10-05T00:44:21.749Z,99.90
2018-10-05T00:49:21.129Z,99.90
2018-10-05T00:54:20.488Z,99.90
2018-10-05T00:56:50.457Z,99.90
2018-10-05T00:59:20.476Z,99.90
2018-10-05T01:04:19.899Z,99.90
2018-10-05T01:09:19.228Z,99.90
2018-10-05T01:26:46.491Z,99.90
2018-10-05T01:29:16.459Z,99.90
2018-10-05T01:31:46.417Z,99.90
2018-10-05T01:36:46.039Z,99.90
2018-10-05T01:41:45.396Z,99.90
2018-10-05T01:44:15.344Z,99.90
2018-10-05T01:51:44.117Z,99.90
2018-10-05T01:56:48.279Z,99.90
2018-10-05T01:59:18.262Z,99.90
2018-10-05T02:01:48.198Z,99.90
2018-10-05T02:16:45.240Z,99.90
2018-10-05T02:21:46.200Z,99.90
2018-10-05T02:31:44.842Z,99.90
2018-10-05T02:34:14.833Z,99.90
2018-10-05T02:36:44.816Z,99.90
2018-10-05T02:51:41.878Z,99.90
2018-10-05T02:56:45.980Z,99.90
2018-10-05T03:14:17.923Z,99.90
2018-10-05T03:16:47.863Z,99.90
2018-10-05T03:21:47.233Z,99.90
2018-10-05T03:34:14.966Z,99.90
2018-10-05T03:41:43.774Z,99.90
2018-10-05T03:44:13.701Z,99.90
2018-10-05T03:51:43.542Z,99.90
2018-10-05T04:06:48.128Z,99.90
2018-10-05T04:11:47.483Z,99.90
2018-10-05T04:16:46.931Z,99.90
2018-10-05T04:21:46.325Z,99.90
2018-10-05T04:26:46.440Z,99.90
2018-10-05T04:29:18.356Z,99.90
2018-10-05T04:31:48.376Z,99.90
2018-10-05T04:36:47.724Z,99.90
2018-10-05T04:44:16.515Z,99.90
2018-10-05T04:51:45.300Z,99.90
2018-10-05T05:01:43.622Z,99.90
2018-10-05T05:06:42.975Z,99.90
2018-10-05T05:21:40.038Z,99.90
2018-10-05T05:24:10.011Z,99.90
2018-10-05T05:29:10.363Z,99.90
2018-10-05T05:31:44.279Z,99.90
2018-10-05T05:34:14.228Z,99.90
2018-10-05T05:36:49.155Z,99.90
2018-10-05T05:39:19.091Z,99.90
2018-10-05T05:41:49.061Z,99.90
2018-10-05T05:46:48.511Z,99.90
2018-10-05T05:51:47.829Z,99.90
2018-10-05T05:56:47.302Z,99.90
2018-10-05T06:01:46.732Z,99.90
2018-10-05T06:06:46.914Z,99.90
2018-10-05T06:16:45.898Z,99.90
2018-10-05T06:29:16.031Z,99.90
2018-10-05T06:31:45.993Z,99.90
2018-10-05T06:34:15.961Z,99.90
2018-10-05T06:44:15.760Z,99.90
2018-10-05T06:46:52.686Z,99.90
2018-10-05T06:51:52.080Z,99.90
2018-10-05T06:54:22.032Z,99.90
2018-10-05T06:59:21.405Z,99.90
2018-10-05T07:01:54.479Z,99.90
2018-10-05T07:04:24.420Z,99.90
2018-10-05T07:06:54.420Z,99.90
2018-10-05T07:11:53.836Z,99.90
2018-10-05T07:14:23.836Z,99.90
2018-10-05T07:16:54.698Z,99.90
2018-10-05T07:21:54.061Z,99.90
2018-10-05T07:24:24.043Z,99.90
2018-10-05T07:26:54.071Z,99.90
2018-10-05T07:29:24.237Z,99.90
2018-10-05T07:34:23.652Z,99.90
2018-10-05T07:36:53.726Z,99.90
2018-10-05T07:39:23.677Z,99.90
2018-10-05T07:41:53.695Z,99.90
2018-10-05T07:54:22.108Z,99.90
2018-10-05T07:59:21.556Z,99.90
2018-10-05T08:04:20.974Z,99.90
2018-10-05T08:09:22.203Z,99.90
2018-10-05T08:14:21.833Z,99.90
2018-10-05T08:19:21.472Z,99.90
2018-10-05T08:24:21.197Z,99.90
2018-10-05T08:29:20.808Z,99.90
2018-10-05T08:31:50.792Z,99.90
2018-10-05T08:34:20.960Z,99.90
2018-10-05T08:39:20.622Z,99.90
2018-10-05T08:41:50.644Z,99.90
2018-10-05T08:44:20.750Z,99.90
2018-10-05T08:49:20.333Z,99.90
2018-10-05T08:51:50.576Z,99.90
2018-10-05T08:56:51.975Z,99.90
2018-10-05T09:09:20.045Z,99.90
2018-10-05T09:11:51.718Z,99.90
2018-10-05T09:14:21.799Z,99.90
2018-10-05T09:19:21.227Z,99.90
2018-10-05T09:24:20.769Z,99.90
2018-10-05T09:26:50.875Z,99.90
2018-10-05T09:29:21.054Z,99.90
2018-10-05T09:31:53.827Z,99.90
2018-10-05T09:34:23.781Z,99.90
2018-10-05T09:36:53.726Z,99.90
2018-10-05T09:41:53.280Z,99.90
2018-10-05T09:44:23.850Z,99.90
2018-10-05T09:49:23.392Z,99.90
2018-10-05T09:51:53.474Z,99.90
2018-10-05T09:56:53.684Z,99.90
2018-10-05T09:59:23.721Z,99.90
2018-10-05T10:01:59.104Z,99.90
2018-10-05T10:04:29.722Z,99.90
2018-10-05T10:11:58.737Z,99.90
2018-10-05T10:14:28.823Z,99.90
2018-10-05T10:21:57.770Z,99.90
2018-10-05T10:24:27.872Z,99.90
2018-10-05T10:29:28.635Z,99.90
2018-10-05T10:31:58.686Z,99.90
2018-10-05T10:41:59.254Z,99.90
2018-10-05T10:46:58.807Z,99.90
2018-10-05T10:51:58.257Z,99.90
2018-10-05T10:54:28.225Z,99.90
2018-10-05T10:59:28.286Z,99.90
2018-10-05T11:01:58.399Z,99.90
2018-10-05T11:04:28.623Z,99.90
2018-10-05T11:09:28.515Z,99.90
2018-10-05T11:11:58.580Z,99.90
2018-10-05T11:24:29.380Z,99.90
2018-10-05T11:31:58.752Z,99.90
2018-10-05T11:44:27.640Z,99.90
2018-10-05T11:46:58.123Z,99.90
2018-10-05T11:51:57.691Z,99.90
2018-10-05T11:54:27.789Z,99.90
2018-10-05T12:01:58.868Z,99.90
2018-10-05T12:09:27.818Z,99.90
2018-10-05T12:11:57.909Z,99.90
2018-10-05T12:14:28.033Z,99.90
2018-10-05T12:24:26.461Z,99.90
2018-10-05T12:26:57.399Z,99.90
2018-10-05T12:31:58.001Z,99.90
2018-10-05T12:34:28.031Z,99.90
2018-10-05T12:39:28.151Z,99.90
2018-10-05T12:41:58.225Z,99.70
2018-10-05T12:44:28.271Z,99.90
2018-10-05T12:51:57.303Z,99.90
2018-10-05T12:54:27.390Z,98.90
2018-10-05T13:01:59.346Z,97.70
2018-10-05T13:04:29.428Z,98.30
2018-10-05T13:07:06.050Z,98.00
2018-10-05T13:14:35.239Z,98.10
2018-10-05T13:17:06.433Z,96.70
2018-10-05T13:22:08.487Z,96.00
2018-10-05T13:24:38.652Z,95.30
2018-10-05T13:27:08.634Z,96.40
2018-10-05T13:29:39.180Z,93.50
2018-10-05T13:32:09.345Z,93.60
2018-10-05T13:34:39.425Z,94.80
2018-10-05T13:37:09.552Z,93.30
2018-10-05T13:39:39.637Z,94.10
2018-10-05T13:47:09.240Z,93.00
2018-10-05T13:49:39.271Z,90.70
2018-10-05T13:52:09.376Z,89.50
2018-10-05T13:54:39.458Z,88.10
2018-10-05T13:57:09.513Z,86.50
2018-10-05T14:02:09.646Z,82.80
2018-10-05T14:07:09.270Z,83.90
2018-10-05T14:09:39.281Z,88.10
2018-10-05T14:12:09.336Z,90.20
2018-10-05T14:17:08.856Z,91.30
2018-10-05T14:22:08.508Z,88.60
2018-10-05T14:24:38.638Z,87.60
2018-10-05T14:27:08.828Z,88.40
2018-10-05T14:29:40.344Z,86.50
2018-10-05T14:32:10.694Z,85.00
2018-10-05T14:34:40.827Z,85.80
2018-10-05T14:39:40.481Z,85.10
2018-10-05T14:47:09.965Z,90.30
2018-10-05T14:52:09.548Z,91.20
2018-10-05T14:54:39.560Z,91.60
2018-10-05T14:57:09.683Z,92.30
2018-10-05T15:02:09.079Z,94.50
2018-10-05T15:07:08.689Z,95.90
2018-10-05T15:09:38.744Z,95.20
2018-10-05T15:14:39.421Z,96.40
2018-10-05T15:32:15.676Z,99.00
2018-10-05T15:37:16.024Z,99.60
2018-10-05T15:39:46.408Z,98.90
2018-10-05T15:44:46.752Z,99.40
2018-10-05T15:54:46.261Z,99.80
2018-10-05T15:57:16.247Z,99.90
2018-10-05T16:02:15.691Z,99.90
2018-10-05T16:04:45.671Z,99.90
2018-10-05T16:07:15.674Z,99.90
2018-10-05T16:09:45.702Z,99.90
2018-10-05T16:14:45.137Z,99.90
2018-10-05T16:17:15.291Z,99.90
2018-10-05T16:24:45.136Z,99.90
2018-10-05T16:29:44.694Z,99.90
2018-10-05T16:34:44.402Z,99.90
2018-10-05T16:39:43.831Z,99.90
2018-10-05T16:42:13.855Z,99.90
2018-10-05T16:44:43.993Z,99.90
2018-10-05T16:52:12.977Z,99.90
2018-10-05T17:34:37.711Z,99.90
2018-10-05T17:42:07.405Z,99.90
2018-10-05T17:47:06.875Z,99.90
2018-10-05T17:54:35.771Z,99.90
2018-10-05T17:57:07.023Z,99.90
2018-10-05T18:02:06.468Z,99.90
2018-10-05T18:04:36.425Z,99.90
2018-10-05T18:14:34.882Z,99.90
2018-10-05T18:19:34.281Z,99.90
2018-10-05T18:27:03.617Z,99.90
2018-10-05T18:29:33.710Z,99.90
2018-10-05T18:32:05.228Z,99.90
2018-10-05T18:34:35.312Z,99.90
2018-10-05T18:52:02.042Z,99.90
2018-10-05T19:02:06.043Z,99.90
2018-10-05T19:04:36.085Z,99.90
2018-10-05T19:14:34.656Z,99.90
2018-10-05T19:17:05.204Z,99.90
2018-10-05T19:19:35.148Z,99.90
2018-10-05T19:24:37.973Z,99.90
2018-10-05T19:27:07.989Z,99.90
2018-10-05T19:34:36.801Z,99.90
2018-10-05T19:39:36.387Z,99.90
2018-10-05T19:42:06.497Z,99.90
2018-10-05T19:44:36.460Z,99.90
2018-10-05T19:52:05.437Z,99.90
2018-10-05T19:59:34.930Z,99.90
2018-10-05T20:04:34.751Z,99.90
2018-10-05T20:12:03.877Z,99.90
2018-10-05T20:14:33.939Z,99.90
2018-10-05T20:19:33.479Z,99.90
2018-10-05T20:24:33.048Z,99.90
2018-10-05T20:29:32.462Z,99.90
2018-10-05T20:39:33.770Z,99.90
2018-10-05T20:47:02.778Z,99.90
2018-10-05T20:49:32.786Z,99.90
2018-10-05T21:12:06.105Z,99.90
2018-10-05T21:24:34.666Z,99.90
2018-10-05T21:27:04.644Z,99.90
2018-10-05T21:29:34.657Z,99.90
2018-10-05T21:32:06.485Z,99.90
2018-10-05T21:34:36.512Z,99.90
2018-10-05T21:49:37.519Z,99.90
2018-10-05T21:57:06.340Z,99.90
2018-10-05T22:02:05.834Z,99.90
2018-10-05T22:04:35.875Z,99.90
2018-10-05T22:07:06.172Z,99.90
2018-10-05T22:09:36.189Z,99.90
2018-10-05T22:19:34.553Z,99.90
2018-10-05T22:24:38.355Z,99.90
2018-10-05T22:27:08.372Z,99.90
2018-10-05T22:32:08.081Z,99.90
2018-10-05T22:34:38.016Z,99.90
2018-10-05T22:39:37.415Z,99.90
2018-10-05T22:42:08.440Z,99.90
2018-10-05T22:49:37.372Z,99.90
2018-10-05T22:54:36.756Z,99.90
2018-10-05T22:57:06.776Z,99.90
2018-10-05T23:04:35.666Z,99.90
2018-10-05T23:09:35.087Z,99.90
2018-10-05T23:12:05.695Z,99.90
2018-10-05T23:19:34.553Z,99.90
2018-10-05T23:22:04.533Z,99.90
2018-10-05T23:24:34.575Z,99.90
2018-10-05T23:29:35.054Z,99.90
2018-10-05T23:34:34.823Z,99.90
2018-10-05T23:37:04.812Z,99.90
2018-10-05T23:54:36.886Z,99.90
2018-10-05T23:57:06.895Z,99.90
